sensor_id;sensor_type;location;lat;lon;timestamp;pressure;altitude;pressure_sealevel;temperature;humidity
13705;BME280;6924;52.122;9.952;2022-08-20T00:00:04;100288.16;;;19.43;71.13
13705;BME280;6924;52.122;9.952;2022-08-20T00:02:37;100292.22;;;19.42;71.07
13705;BME280;6924;52.122;9.952;2022-08-20T00:05:04;100296.31;;;19.41;70.88
13705;BME280;6924;52.122;9.952;2022-08-20T00:07:31;100298.38;;;19.40;71.04
13705;BME280;6924;52.122;9.952;2022-08-20T00:09:58;100298.28;;;19.37;71.20
13705;BME280;6924;52.122;9.952;2022-08-20T00:12:25;100294.97;;;19.35;71.68
13705;BME280;6924;52.122;9.952;2022-08-20T00:14:51;100295.78;;;19.35;71.79
13705;BME280;6924;52.122;9.952;2022-08-20T00:17:18;100293.78;;;19.36;71.87
13705;BME280;6924;52.122;9.952;2022-08-20T00:19:44;100292.09;;;19.35;72.25
13705;BME280;6924;52.122;9.952;2022-08-20T00:22:11;100291.22;;;19.31;72.32
13705;BME280;6924;52.122;9.952;2022-08-20T00:24:37;100290.38;;;19.30;71.99
13705;BME280;6924;52.122;9.952;2022-08-20T00:27:05;100294.47;;;19.29;72.15
13705;BME280;6924;52.122;9.952;2022-08-20T00:29:32;100295.31;;;19.30;72.63
13705;BME280;6924;52.122;9.952;2022-08-20T00:31:58;100298.91;;;19.27;72.72
13705;BME280;6924;52.122;9.952;2022-08-20T00:34:25;100303.00;;;19.26;73.19
13705;BME280;6924;52.122;9.952;2022-08-20T00:36:52;100298.47;;;19.25;73.33
13705;BME280;6924;52.122;9.952;2022-08-20T00:39:18;100298.41;;;19.21;73.26
13705;BME280;6924;52.122;9.952;2022-08-20T00:41:44;100308.59;;;19.18;73.09
13705;BME280;6924;52.122;9.952;2022-08-20T00:44:15;100304.84;;;19.14;73.10
13705;BME280;6924;52.122;9.952;2022-08-20T00:46:43;100315.47;;;19.14;72.83
13705;BME280;6924;52.122;9.952;2022-08-20T00:49:14;100304.00;;;19.14;72.97
13705;BME280;6924;52.122;9.952;2022-08-20T00:51:44;100305.28;;;19.16;72.69
13705;BME280;6924;52.122;9.952;2022-08-20T00:54:14;100309.75;;;19.14;72.66
13705;BME280;6924;52.122;9.952;2022-08-20T00:56:46;100301.53;;;19.12;72.76
13705;BME280;6924;52.122;9.952;2022-08-20T00:59:19;100306.44;;;19.12;72.94
13705;BME280;6924;52.122;9.952;2022-08-20T01:01:46;100312.53;;;19.10;73.39
13705;BME280;6924;52.122;9.952;2022-08-20T01:04:13;100312.91;;;19.09;73.67
13705;BME280;6924;52.122;9.952;2022-08-20T01:06:40;100319.78;;;19.04;74.09
13705;BME280;6924;52.122;9.952;2022-08-20T01:09:08;100318.13;;;19.03;74.37
13705;BME280;6924;52.122;9.952;2022-08-20T01:11:34;100320.91;;;18.99;74.48
13705;BME280;6924;52.122;9.952;2022-08-20T01:14:05;100328.31;;;19.01;74.45
13705;BME280;6924;52.122;9.952;2022-08-20T01:16:45;100326.66;;;18.99;74.09
13705;BME280;6924;52.122;9.952;2022-08-20T01:19:16;100330.72;;;18.98;74.26
13705;BME280;6924;52.122;9.952;2022-08-20T01:21:47;100334.44;;;18.99;74.48
13705;BME280;6924;52.122;9.952;2022-08-20T01:24:16;100329.06;;;18.97;74.67
13705;BME280;6924;52.122;9.952;2022-08-20T01:26:47;100324.09;;;18.94;75.26
13705;BME280;6924;52.122;9.952;2022-08-20T01:29:16;100317.47;;;18.90;75.88
13705;BME280;6924;52.122;9.952;2022-08-20T01:31:44;100323.19;;;18.90;75.88
13705;BME280;6924;52.122;9.952;2022-08-20T01:34:12;100329.75;;;18.91;75.72
13705;BME280;6924;52.122;9.952;2022-08-20T01:36:41;100326.88;;;18.91;75.43
13705;BME280;6924;52.122;9.952;2022-08-20T01:39:12;100330.09;;;18.89;75.81
13705;BME280;6924;52.122;9.952;2022-08-20T01:41:48;100326.81;;;18.87;76.01
13705;BME280;6924;52.122;9.952;2022-08-20T01:44:18;100326.72;;;18.84;76.74
13705;BME280;6924;52.122;9.952;2022-08-20T01:46:46;100327.03;;;18.78;76.36
13705;BME280;6924;52.122;9.952;2022-08-20T01:49:16;100331.09;;;18.77;76.34
13705;BME280;6924;52.122;9.952;2022-08-20T01:51:43;100332.78;;;18.78;75.57
13705;BME280;6924;52.122;9.952;2022-08-20T01:54:10;100328.22;;;18.77;74.91
13705;BME280;6924;52.122;9.952;2022-08-20T01:56:51;100331.09;;;18.77;75.46
13705;BME280;6924;52.122;9.952;2022-08-20T01:59:18;100328.13;;;18.74;75.77
13705;BME280;6924;52.122;9.952;2022-08-20T02:01:44;100329.25;;;18.69;75.98
13705;BME280;6924;52.122;9.952;2022-08-20T02:04:11;100322.25;;;18.67;76.05
13705;BME280;6924;52.122;9.952;2022-08-20T02:06:42;100314.47;;;18.67;75.94
13705;BME280;6924;52.122;9.952;2022-08-20T02:09:09;100323.38;;;18.62;76.48
13705;BME280;6924;52.122;9.952;2022-08-20T02:11:37;100318.47;;;18.63;76.70
13705;BME280;6924;52.122;9.952;2022-08-20T02:14:07;100319.59;;;18.58;76.91
13705;BME280;6924;52.122;9.952;2022-08-20T02:16:37;100317.94;;;18.57;76.95
13705;BME280;6924;52.122;9.952;2022-08-20T02:19:06;100319.06;;;18.52;77.09
13705;BME280;6924;52.122;9.952;2022-08-20T02:21:38;100316.94;;;18.49;77.11
13705;BME280;6924;52.122;9.952;2022-08-20T02:24:06;100320.78;;;18.37;77.44
13705;BME280;6924;52.122;9.952;2022-08-20T02:26:33;100320.31;;;18.35;77.85
13705;BME280;6924;52.122;9.952;2022-08-20T02:29:05;100328.53;;;18.37;77.70
13705;BME280;6924;52.122;9.952;2022-08-20T02:31:33;100310.97;;;18.38;78.05
13705;BME280;6924;52.122;9.952;2022-08-20T02:34:00;100321.44;;;18.31;78.94
13705;BME280;6924;52.122;9.952;2022-08-20T02:36:27;100319.25;;;18.24;79.80
13705;BME280;6924;52.122;9.952;2022-08-20T02:38:53;100316.84;;;18.26;79.47
13705;BME280;6924;52.122;9.952;2022-08-20T02:41:20;100325.06;;;18.28;78.78
13705;BME280;6924;52.122;9.952;2022-08-20T02:43:46;100331.69;;;18.32;78.12
13705;BME280;6924;52.122;9.952;2022-08-20T02:46:15;100332.06;;;18.30;78.02
13705;BME280;6924;52.122;9.952;2022-08-20T02:48:42;100331.69;;;18.32;78.02
13705;BME280;6924;52.122;9.952;2022-08-20T02:51:09;100324.31;;;18.31;78.20
13705;BME280;6924;52.122;9.952;2022-08-20T02:53:38;100328.34;;;18.30;78.17
13705;BME280;6924;52.122;9.952;2022-08-20T02:56:07;100333.72;;;18.31;78.08
13705;BME280;6924;52.122;9.952;2022-08-20T02:58:33;100337.03;;;18.33;77.79
13705;BME280;6924;52.122;9.952;2022-08-20T03:01:01;100335.00;;;18.34;77.81
13705;BME280;6924;52.122;9.952;2022-08-20T03:03:29;100333.81;;;18.35;77.29
13705;BME280;6924;52.122;9.952;2022-08-20T03:05:57;100329.72;;;18.36;77.41
13705;BME280;6924;52.122;9.952;2022-08-20T03:08:25;100341.19;;;18.36;77.80
13705;BME280;6924;52.122;9.952;2022-08-20T03:10:52;100342.41;;;18.35;78.41
13705;BME280;6924;52.122;9.952;2022-08-20T03:13:20;100346.09;;;18.35;78.64
13705;BME280;6924;52.122;9.952;2022-08-20T03:15:49;100344.91;;;18.36;78.28
13705;BME280;6924;52.122;9.952;2022-08-20T03:18:16;100351.91;;;18.39;78.65
13705;BME280;6924;52.122;9.952;2022-08-20T03:20:45;100355.97;;;18.38;79.04
13705;BME280;6924;52.122;9.952;2022-08-20T03:23:12;100351.44;;;18.37;79.28
13705;BME280;6924;52.122;9.952;2022-08-20T03:25:39;100343.22;;;18.35;79.67
13705;BME280;6924;52.122;9.952;2022-08-20T03:28:07;100336.69;;;18.35;79.60
13705;BME280;6924;52.122;9.952;2022-08-20T03:30:34;100340.72;;;18.34;79.95
13705;BME280;6924;52.122;9.952;2022-08-20T03:33:01;100345.16;;;18.31;80.11
13705;BME280;6924;52.122;9.952;2022-08-20T03:35:29;100343.97;;;18.32;80.57
13705;BME280;6924;52.122;9.952;2022-08-20T03:37:57;100341.13;;;18.32;81.00
13705;BME280;6924;52.122;9.952;2022-08-20T03:40:26;100348.84;;;18.32;81.07
13705;BME280;6924;52.122;9.952;2022-08-20T03:42:54;100354.22;;;18.33;81.45
13705;BME280;6924;52.122;9.952;2022-08-20T03:45:21;100352.56;;;18.32;81.21
13705;BME280;6924;52.122;9.952;2022-08-20T03:47:49;100356.25;;;18.33;81.64
13705;BME280;6924;52.122;9.952;2022-08-20T03:50:17;100352.19;;;18.34;81.69
13705;BME280;6924;52.122;9.952;2022-08-20T03:52:44;100349.31;;;18.34;81.36
13705;BME280;6924;52.122;9.952;2022-08-20T03:55:12;100346.84;;;18.32;81.22
13705;BME280;6924;52.122;9.952;2022-08-20T03:57:43;100357.91;;;18.34;81.05
13705;BME280;6924;52.122;9.952;2022-08-20T04:00:11;100356.25;;;18.33;80.85
13705;BME280;6924;52.122;9.952;2022-08-20T04:02:38;100359.94;;;18.33;80.80
13705;BME280;6924;52.122;9.952;2022-08-20T04:05:06;100366.44;;;18.30;80.45
13705;BME280;6924;52.122;9.952;2022-08-20T04:07:32;100363.16;;;18.32;79.95
13705;BME280;6924;52.122;9.952;2022-08-20T04:10:06;100358.66;;;18.31;79.99
13705;BME280;6924;52.122;9.952;2022-08-20T04:12:35;100363.56;;;18.30;80.00
13705;BME280;6924;52.122;9.952;2022-08-20T04:15:06;100359.47;;;18.31;79.68
13705;BME280;6924;52.122;9.952;2022-08-20T04:17:33;100364.38;;;18.31;79.56
13705;BME280;6924;52.122;9.952;2022-08-20T04:20:01;100365.56;;;18.30;79.16
13705;BME280;6924;52.122;9.952;2022-08-20T04:22:28;100373.34;;;18.29;79.12
13705;BME280;6924;52.122;9.952;2022-08-20T04:24:54;100370.47;;;18.29;78.04
13705;BME280;6924;52.122;9.952;2022-08-20T04:27:20;100368.38;;;18.26;78.82
13705;BME280;6924;52.122;9.952;2022-08-20T04:29:48;100375.22;;;18.22;79.48
13705;BME280;6924;52.122;9.952;2022-08-20T04:32:15;100370.69;;;18.21;79.60
13705;BME280;6924;52.122;9.952;2022-08-20T04:34:41;100380.19;;;18.25;80.41
13705;BME280;6924;52.122;9.952;2022-08-20T04:37:09;100382.69;;;18.26;81.02
13705;BME280;6924;52.122;9.952;2022-08-20T04:39:35;100378.53;;;18.24;81.37
13705;BME280;6924;52.122;9.952;2022-08-20T04:42:02;100370.31;;;18.22;81.50
13705;BME280;6924;52.122;9.952;2022-08-20T04:44:28;100367.44;;;18.22;81.74
13705;BME280;6924;52.122;9.952;2022-08-20T04:46:56;100380.19;;;18.25;82.05
13705;BME280;6924;52.122;9.952;2022-08-20T04:49:22;100379.00;;;18.26;82.01
13705;BME280;6924;52.122;9.952;2022-08-20T04:51:50;100376.50;;;18.24;82.09
13705;BME280;6924;52.122;9.952;2022-08-20T04:54:17;100383.50;;;18.27;82.85
13705;BME280;6924;52.122;9.952;2022-08-20T04:56:43;100377.78;;;18.27;82.53
13705;BME280;6924;52.122;9.952;2022-08-20T04:59:12;100379.00;;;18.26;82.47
13705;BME280;6924;52.122;9.952;2022-08-20T05:01:39;100385.53;;;18.26;81.71
13705;BME280;6924;52.122;9.952;2022-08-20T05:04:06;100378.59;;;18.27;82.17
13705;BME280;6924;52.122;9.952;2022-08-20T05:06:33;100389.34;;;18.30;82.65
13705;BME280;6924;52.122;9.952;2022-08-20T05:09:00;100386.00;;;18.28;82.73
13705;BME280;6924;52.122;9.952;2022-08-20T05:11:27;100391.34;;;18.30;83.42
13705;BME280;6924;52.122;9.952;2022-08-20T05:13:53;100391.81;;;18.32;83.54
13705;BME280;6924;52.122;9.952;2022-08-20T05:16:20;100390.63;;;18.33;83.38
13705;BME280;6924;52.122;9.952;2022-08-20T05:18:48;100381.66;;;18.34;83.61
13705;BME280;6924;52.122;9.952;2022-08-20T05:21:17;100382.94;;;18.37;83.66
13705;BME280;6924;52.122;9.952;2022-08-20T05:23:43;100388.66;;;18.37;83.13
13705;BME280;6924;52.122;9.952;2022-08-20T05:26:10;100392.00;;;18.39;83.07
13705;BME280;6924;52.122;9.952;2022-08-20T05:28:38;100398.19;;;18.41;82.68
13705;BME280;6924;52.122;9.952;2022-08-20T05:31:06;100398.66;;;18.43;82.08
13705;BME280;6924;52.122;9.952;2022-08-20T05:33:34;100406.47;;;18.46;82.64
13705;BME280;6924;52.122;9.952;2022-08-20T05:36:02;100404.44;;;18.47;82.75
13705;BME280;6924;52.122;9.952;2022-08-20T05:38:33;100403.25;;;18.48;82.42
13705;BME280;6924;52.122;9.952;2022-08-20T05:41:00;100407.41;;;18.50;82.24
13705;BME280;6924;52.122;9.952;2022-08-20T05:43:27;100411.19;;;18.54;82.35
13705;BME280;6924;52.122;9.952;2022-08-20T05:45:53;100414.94;;;18.58;82.39
13705;BME280;6924;52.122;9.952;2022-08-20T05:48:22;100410.53;;;18.61;82.41
13705;BME280;6924;52.122;9.952;2022-08-20T05:50:50;100409.31;;;18.62;81.86
13705;BME280;6924;52.122;9.952;2022-08-20T05:53:19;100406.53;;;18.66;82.47
13705;BME280;6924;52.122;9.952;2022-08-20T05:55:47;100416.88;;;18.70;82.33
13705;BME280;6924;52.122;9.952;2022-08-20T05:58:16;100410.38;;;18.73;81.97
13705;BME280;6924;52.122;9.952;2022-08-20T06:00:44;100410.47;;;18.77;81.92
13705;BME280;6924;52.122;9.952;2022-08-20T06:03:10;100410.13;;;18.78;82.00
13705;BME280;6924;52.122;9.952;2022-08-20T06:05:54;100407.34;;;18.82;82.73
13705;BME280;6924;52.122;9.952;2022-08-20T06:08:21;100410.19;;;18.82;83.35
13705;BME280;6924;52.122;9.952;2022-08-20T06:10:49;100406.97;;;18.84;83.41
13705;BME280;6924;52.122;9.952;2022-08-20T06:13:16;100413.97;;;18.86;83.35
13705;BME280;6924;52.122;9.952;2022-08-20T06:15:42;100413.97;;;18.86;83.53
13705;BME280;6924;52.122;9.952;2022-08-20T06:18:09;100416.53;;;18.91;83.50
13705;BME280;6924;52.122;9.952;2022-08-20T06:20:36;100410.06;;;18.94;83.02
13705;BME280;6924;52.122;9.952;2022-08-20T06:23:03;100425.31;;;18.98;82.75
13705;BME280;6924;52.122;9.952;2022-08-20T06:25:29;100413.91;;;19.02;83.86
13705;BME280;6924;52.122;9.952;2022-08-20T06:27:57;100414.81;;;19.06;83.10
13705;BME280;6924;52.122;9.952;2022-08-20T06:30:24;100413.69;;;19.11;83.19
13705;BME280;6924;52.122;9.952;2022-08-20T06:32:50;100414.59;;;19.15;84.40
13705;BME280;6924;52.122;9.952;2022-08-20T06:35:17;100426.59;;;19.20;84.97
13705;BME280;6924;52.122;9.952;2022-08-20T06:37:43;100424.63;;;19.25;84.73
13705;BME280;6924;52.122;9.952;2022-08-20T06:40:12;100416.94;;;19.29;83.87
13705;BME280;6924;52.122;9.952;2022-08-20T06:42:39;100427.72;;;19.35;83.78
13705;BME280;6924;52.122;9.952;2022-08-20T06:45:10;100421.28;;;19.42;83.00
13705;BME280;6924;52.122;9.952;2022-08-20T06:47:39;100427.56;;;19.48;82.30
13705;BME280;6924;52.122;9.952;2022-08-20T06:50:07;100416.59;;;19.53;81.76
13705;BME280;6924;52.122;9.952;2022-08-20T06:52:33;100429.50;;;19.63;81.94
13705;BME280;6924;52.122;9.952;2022-08-20T06:55:04;100423.44;;;19.68;81.60
13705;BME280;6924;52.122;9.952;2022-08-20T06:57:32;100423.25;;;19.77;81.72
13705;BME280;6924;52.122;9.952;2022-08-20T06:59:58;100425.41;;;19.84;81.44
13705;BME280;6924;52.122;9.952;2022-08-20T07:02:26;100423.88;;;19.90;81.14
13705;BME280;6924;52.122;9.952;2022-08-20T07:04:52;100427.72;;;19.97;80.69
13705;BME280;6924;52.122;9.952;2022-08-20T07:07:19;100420.06;;;20.05;79.93
13705;BME280;6924;52.122;9.952;2022-08-20T07:09:46;100418.91;;;20.10;77.28
13705;BME280;6924;52.122;9.952;2022-08-20T07:12:12;100411.63;;;20.16;76.51
13705;BME280;6924;52.122;9.952;2022-08-20T07:14:39;100428.97;;;20.23;76.75
13705;BME280;6924;52.122;9.952;2022-08-20T07:17:05;100429.09;;;20.30;75.37
13705;BME280;6924;52.122;9.952;2022-08-20T07:19:35;100434.97;;;20.37;73.81
13705;BME280;6924;52.122;9.952;2022-08-20T07:22:02;100434.28;;;20.44;73.82
13705;BME280;6924;52.122;9.952;2022-08-20T07:24:31;100429.84;;;20.50;74.42
13705;BME280;6924;52.122;9.952;2022-08-20T07:26:58;100436.09;;;20.56;74.10
13705;BME280;6924;52.122;9.952;2022-08-20T07:29:25;100437.00;;;20.60;72.85
13705;BME280;6924;52.122;9.952;2022-08-20T07:32:11;100440.00;;;20.67;73.37
13705;BME280;6924;52.122;9.952;2022-08-20T07:34:57;100447.88;;;20.74;73.75
13705;BME280;6924;52.122;9.952;2022-08-20T07:37:23;100436.47;;;20.77;73.09
13705;BME280;6924;52.122;9.952;2022-08-20T07:39:50;100450.88;;;20.81;73.95
13705;BME280;6924;52.122;9.952;2022-08-20T07:42:17;100447.59;;;20.82;71.60
13705;BME280;6924;52.122;9.952;2022-08-20T07:44:43;100443.94;;;20.85;72.66
13705;BME280;6924;52.122;9.952;2022-08-20T07:47:10;100448.13;;;20.88;73.44
13705;BME280;6924;52.122;9.952;2022-08-20T07:49:37;100445.25;;;20.88;73.90
13705;BME280;6924;52.122;9.952;2022-08-20T07:52:05;100441.03;;;20.82;72.22
13705;BME280;6924;52.122;9.952;2022-08-20T07:54:32;100440.66;;;20.83;72.86
13705;BME280;6924;52.122;9.952;2022-08-20T07:57:00;100441.41;;;20.80;73.27
13705;BME280;6924;52.122;9.952;2022-08-20T07:59:28;100443.47;;;20.80;74.36
13705;BME280;6924;52.122;9.952;2022-08-20T08:01:54;100446.28;;;20.76;73.74
13705;BME280;6924;52.122;9.952;2022-08-20T08:04:21;100449.59;;;20.78;73.76
13705;BME280;6924;52.122;9.952;2022-08-20T08:06:48;100442.16;;;20.74;73.76
13705;BME280;6924;52.122;9.952;2022-08-20T08:09:16;100435.72;;;20.84;74.22
13705;BME280;6924;52.122;9.952;2022-08-20T08:11:45;100435.78;;;20.88;75.34
13705;BME280;6924;52.122;9.952;2022-08-20T08:14:16;100448.50;;;20.87;75.30
13705;BME280;6924;52.122;9.952;2022-08-20T08:16:47;100445.34;;;20.95;74.31
13705;BME280;6924;52.122;9.952;2022-08-20T08:19:16;100450.22;;;20.91;73.15
13705;BME280;6924;52.122;9.952;2022-08-20T08:21:43;100451.63;;;21.04;73.65
13705;BME280;6924;52.122;9.952;2022-08-20T08:24:10;100455.13;;;21.21;73.45
13705;BME280;6924;52.122;9.952;2022-08-20T08:26:38;100456.72;;;21.15;73.79
13705;BME280;6924;52.122;9.952;2022-08-20T08:29:04;100467.13;;;21.26;73.81
13705;BME280;6924;52.122;9.952;2022-08-20T08:31:31;100471.06;;;21.41;73.20
13705;BME280;6924;52.122;9.952;2022-08-20T08:33:58;100480.22;;;21.51;74.06
13705;BME280;6924;52.122;9.952;2022-08-20T08:36:24;100483.47;;;21.49;73.47
13705;BME280;6924;52.122;9.952;2022-08-20T08:38:51;100480.03;;;21.40;72.04
13705;BME280;6924;52.122;9.952;2022-08-20T08:41:25;100480.41;;;21.38;73.17
13705;BME280;6924;52.122;9.952;2022-08-20T08:43:59;100482.66;;;21.49;73.79
13705;BME280;6924;52.122;9.952;2022-08-20T08:46:37;100488.75;;;21.43;73.04
13705;BME280;6924;52.122;9.952;2022-08-20T08:49:05;100488.34;;;21.45;73.97
13705;BME280;6924;52.122;9.952;2022-08-20T08:51:38;100486.75;;;21.48;73.36
13705;BME280;6924;52.122;9.952;2022-08-20T08:54:06;100484.78;;;21.55;72.83
13705;BME280;6924;52.122;9.952;2022-08-20T08:56:34;100487.28;;;21.57;73.93
13705;BME280;6924;52.122;9.952;2022-08-20T08:59:04;100490.94;;;21.54;73.86
13705;BME280;6924;52.122;9.952;2022-08-20T09:01:34;100486.84;;;21.55;74.51
13705;BME280;6924;52.122;9.952;2022-08-20T09:04:01;100480.78;;;21.63;75.10
13705;BME280;6924;52.122;9.952;2022-08-20T09:06:29;100482.53;;;21.72;73.11
13705;BME280;6924;52.122;9.952;2022-08-20T09:08:58;100483.06;;;21.81;73.16
13705;BME280;6924;52.122;9.952;2022-08-20T09:11:26;100479.06;;;21.93;72.41
13705;BME280;6924;52.122;9.952;2022-08-20T09:13:54;100482.00;;;22.00;73.81
13705;BME280;6924;52.122;9.952;2022-08-20T09:16:23;100484.19;;;22.10;73.30
13705;BME280;6924;52.122;9.952;2022-08-20T09:18:51;100489.75;;;21.92;70.79
13705;BME280;6924;52.122;9.952;2022-08-20T09:21:18;100486.13;;;21.99;71.13
13705;BME280;6924;52.122;9.952;2022-08-20T09:23:44;100486.94;;;21.99;72.05
13705;BME280;6924;52.122;9.952;2022-08-20T09:26:11;100481.72;;;22.12;72.62
13705;BME280;6924;52.122;9.952;2022-08-20T09:28:37;100483.38;;;22.10;71.83
13705;BME280;6924;52.122;9.952;2022-08-20T09:31:04;100479.34;;;22.21;71.68
13705;BME280;6924;52.122;9.952;2022-08-20T09:33:32;100469.66;;;22.37;71.00
13705;BME280;6924;52.122;9.952;2022-08-20T09:35:58;100486.16;;;22.43;70.58
13705;BME280;6924;52.122;9.952;2022-08-20T09:38:25;100471.81;;;22.51;70.92
13705;BME280;6924;52.122;9.952;2022-08-20T09:40:51;100483.81;;;22.56;70.57
13705;BME280;6924;52.122;9.952;2022-08-20T09:43:18;100471.91;;;22.61;70.10
13705;BME280;6924;52.122;9.952;2022-08-20T09:45:44;100476.09;;;22.67;69.62
13705;BME280;6924;52.122;9.952;2022-08-20T09:48:11;100472.47;;;22.78;69.35
13705;BME280;6924;52.122;9.952;2022-08-20T09:50:41;100482.41;;;22.87;70.82
13705;BME280;6924;52.122;9.952;2022-08-20T09:53:09;100472.47;;;22.81;68.32
13705;BME280;6924;52.122;9.952;2022-08-20T09:55:38;100475.91;;;23.01;67.71
13705;BME280;6924;52.122;9.952;2022-08-20T09:58:08;100473.91;;;23.05;67.63
13705;BME280;6924;52.122;9.952;2022-08-20T10:00:36;100468.16;;;23.09;68.13
13705;BME280;6924;52.122;9.952;2022-08-20T10:03:03;100467.34;;;23.08;68.23
13705;BME280;6924;52.122;9.952;2022-08-20T10:05:29;100471.53;;;23.22;68.93
13705;BME280;6924;52.122;9.952;2022-08-20T10:07:58;100476.50;;;23.32;68.14
13705;BME280;6924;52.122;9.952;2022-08-20T10:10:24;100476.16;;;23.44;66.50
13705;BME280;6924;52.122;9.952;2022-08-20T10:12:51;100479.47;;;23.46;67.20
13705;BME280;6924;52.122;9.952;2022-08-20T10:15:17;100481.97;;;23.51;68.87
13705;BME280;6924;52.122;9.952;2022-08-20T10:17:44;100486.81;;;23.29;68.92
13705;BME280;6924;52.122;9.952;2022-08-20T10:20:12;100487.59;;;23.23;68.96
13705;BME280;6924;52.122;9.952;2022-08-20T10:22:39;100485.09;;;23.18;70.12
13705;BME280;6924;52.122;9.952;2022-08-20T10:25:08;100491.59;;;23.04;69.68
13705;BME280;6924;52.122;9.952;2022-08-20T10:27:34;100490.78;;;23.03;70.99
13705;BME280;6924;52.122;9.952;2022-08-20T10:30:02;100483.00;;;23.15;70.40
13705;BME280;6924;52.122;9.952;2022-08-20T10:32:29;100488.84;;;23.22;69.76
13705;BME280;6924;52.122;9.952;2022-08-20T10:34:55;100480.56;;;23.17;69.74
13705;BME280;6924;52.122;9.952;2022-08-20T10:37:24;100480.50;;;23.09;68.62
13705;BME280;6924;52.122;9.952;2022-08-20T10:39:51;100485.91;;;23.11;69.92
13705;BME280;6924;52.122;9.952;2022-08-20T10:42:20;100481.78;;;23.19;69.83
13705;BME280;6924;52.122;9.952;2022-08-20T10:44:46;100487.19;;;23.24;69.84
13705;BME280;6924;52.122;9.952;2022-08-20T10:47:15;100492.16;;;23.24;69.13
13705;BME280;6924;52.122;9.952;2022-08-20T10:49:42;100485.97;;;23.25;69.84
13705;BME280;6924;52.122;9.952;2022-08-20T10:52:09;100483.13;;;23.36;68.79
13705;BME280;6924;52.122;9.952;2022-08-20T10:54:36;100481.13;;;23.47;68.42
13705;BME280;6924;52.122;9.952;2022-08-20T10:57:05;100482.38;;;23.46;67.36
13705;BME280;6924;52.122;9.952;2022-08-20T10:59:36;100478.22;;;23.40;68.31
13705;BME280;6924;52.122;9.952;2022-08-20T11:02:03;100478.25;;;23.51;67.14
13705;BME280;6924;52.122;9.952;2022-08-20T11:04:29;100475.75;;;23.42;68.01
13705;BME280;6924;52.122;9.952;2022-08-20T11:06:56;100476.56;;;23.39;66.66
13705;BME280;6924;52.122;9.952;2022-08-20T11:09:22;100479.06;;;23.48;67.57
13705;BME280;6924;52.122;9.952;2022-08-20T11:11:48;100484.47;;;23.60;66.98
13705;BME280;6924;52.122;9.952;2022-08-20T11:14:15;100485.28;;;23.54;66.82
13705;BME280;6924;52.122;9.952;2022-08-20T11:16:43;100490.66;;;23.55;66.67
13705;BME280;6924;52.122;9.952;2022-08-20T11:19:09;100491.44;;;23.48;66.42
13705;BME280;6924;52.122;9.952;2022-08-20T11:21:35;100491.84;;;23.47;67.91
13705;BME280;6924;52.122;9.952;2022-08-20T11:24:02;100489.69;;;23.29;67.76
13705;BME280;6924;52.122;9.952;2022-08-20T11:26:29;100487.19;;;23.28;68.00
13705;BME280;6924;52.122;9.952;2022-08-20T11:28:55;100493.06;;;23.42;68.61
13705;BME280;6924;52.122;9.952;2022-08-20T11:31:21;100499.16;;;23.26;67.08
13705;BME280;6924;52.122;9.952;2022-08-20T11:33:49;100493.41;;;23.30;67.46
13705;BME280;6924;52.122;9.952;2022-08-20T11:36:16;100498.38;;;23.37;67.98
13705;BME280;6924;52.122;9.952;2022-08-20T11:38:42;100507.41;;;23.28;70.01
13705;BME280;6924;52.122;9.952;2022-08-20T11:41:08;100519.25;;;23.08;72.59
13705;BME280;6924;52.122;9.952;2022-08-20T11:43:35;100522.03;;;22.98;73.42
13705;BME280;6924;52.122;9.952;2022-08-20T11:46:01;100519.84;;;22.84;74.45
13705;BME280;6924;52.122;9.952;2022-08-20T11:48:28;100526.88;;;22.38;77.64
13705;BME280;6924;52.122;9.952;2022-08-20T11:50:56;100527.66;;;22.32;79.21
13705;BME280;6924;52.122;9.952;2022-08-20T11:53:22;100537.22;;;22.05;82.88
13705;BME280;6924;52.122;9.952;2022-08-20T11:55:49;100539.53;;;21.93;88.42
13705;BME280;6924;52.122;9.952;2022-08-20T11:58:15;100539.00;;;21.83;90.10
13705;BME280;6924;52.122;9.952;2022-08-20T12:00:42;100541.97;;;21.91;89.32
13705;BME280;6924;52.122;9.952;2022-08-20T12:03:09;100546.78;;;21.79;93.74
13705;BME280;6924;52.122;9.952;2022-08-20T12:05:36;100542.63;;;21.77;96.81
13705;BME280;6924;52.122;9.952;2022-08-20T12:08:04;100539.91;;;21.57;96.08
13705;BME280;6924;52.122;9.952;2022-08-20T12:10:31;100536.88;;;21.46;96.80
13705;BME280;6924;52.122;9.952;2022-08-20T12:12:57;100536.75;;;21.39;97.69
13705;BME280;6924;52.122;9.952;2022-08-20T12:15:24;100540.56;;;21.43;98.80
13705;BME280;6924;52.122;9.952;2022-08-20T12:17:52;100545.91;;;21.45;99.60
13705;BME280;6924;52.122;9.952;2022-08-20T12:20:18;100542.50;;;21.39;97.93
13705;BME280;6924;52.122;9.952;2022-08-20T12:22:45;100533.88;;;21.39;100.00
13705;BME280;6924;52.122;9.952;2022-08-20T12:25:13;100541.47;;;21.24;100.00
13705;BME280;6924;52.122;9.952;2022-08-20T12:27:40;100539.41;;;21.25;100.00
13705;BME280;6924;52.122;9.952;2022-08-20T12:30:10;100538.31;;;21.33;100.00
13705;BME280;6924;52.122;9.952;2022-08-20T12:32:37;100536.41;;;21.41;100.00
13705;BME280;6924;52.122;9.952;2022-08-20T12:35:05;100545.22;;;21.55;100.00
13705;BME280;6924;52.122;9.952;2022-08-20T12:37:32;100538.34;;;21.63;100.00
13705;BME280;6924;52.122;9.952;2022-08-20T12:40:01;100532.28;;;21.72;100.00
13705;BME280;6924;52.122;9.952;2022-08-20T12:42:30;100536.81;;;21.73;100.00
13705;BME280;6924;52.122;9.952;2022-08-20T12:44:56;100543.81;;;21.72;100.00
13705;BME280;6924;52.122;9.952;2022-08-20T12:47:25;100540.41;;;21.63;100.00
13705;BME280;6924;52.122;9.952;2022-08-20T12:49:53;100533.13;;;21.73;100.00
13705;BME280;6924;52.122;9.952;2022-08-20T12:52:21;100530.59;;;21.67;99.04
13705;BME280;6924;52.122;9.952;2022-08-20T12:54:48;100529.06;;;21.77;99.04
13705;BME280;6924;52.122;9.952;2022-08-20T12:57:24;100529.13;;;21.81;99.10
13705;BME280;6924;52.122;9.952;2022-08-20T12:59:53;100518.50;;;21.88;100.00
13705;BME280;6924;52.122;9.952;2022-08-20T13:02:20;100504.09;;;21.88;99.07